Belleville, Kansas
Current Conditions -  °F | °C
As of 6:55 AM on Friday 28 Nov 2014 (Local Time) from KCNK Reporting Station
Clear Clear  
Wind Chill: 26°   Ceiling: Unl
Heat Index: 33°   Visibility: 10mi
Dew Point: 26°   Wind: 8mph
Humidity: 75%   Direction: 220°SW
Pressure: 29.91"   Gusts: NA
Location:  39.82°N, 97.63°W
Report Text: KCNK 281255Z AUTO 22007KT 10SM CLR 01/M03 A2991 RMK AO2 SLP137 T00061033
Loading
Personal Weather Stations






























Interactive Weather Map New forecast layout! Learn more

10-Day Weather Forecast

Advertisements
Track Severe Weather on mobile